sensor_id;sensor_type;location;lat;lon;timestamp;pressure;altitude;pressure_sealevel;temperature;humidity
28683;BME280;15862;43.062;25.626;2023-02-22T00:00:43;99885.72;;;4.89;100.00
28683;BME280;15862;43.062;25.626;2023-02-22T00:05:44;99875.78;;;4.83;100.00
28683;BME280;15862;43.062;25.626;2023-02-22T00:08:20;99878.50;;;4.80;100.00
28683;BME280;15862;43.062;25.626;2023-02-22T00:10:47;99882.88;;;4.78;100.00
28683;BME280;15862;43.062;25.626;2023-02-22T00:13:16;99880.56;;;4.73;100.00
28683;BME280;15862;43.062;25.626;2023-02-22T00:15:42;99885.81;;;4.70;100.00
28683;BME280;15862;43.062;25.626;2023-02-22T00:18:11;99889.66;;;4.62;100.00
28683;BME280;15862;43.062;25.626;2023-02-22T00:20:37;99884.25;;;4.51;100.00
28683;BME280;15862;43.062;25.626;2023-02-22T00:23:04;99885.44;;;4.44;100.00
28683;BME280;15862;43.062;25.626;2023-02-22T00:25:32;99887.28;;;4.42;100.00
28683;BME280;15862;43.062;25.626;2023-02-22T00:27:58;99886.50;;;4.40;100.00
28683;BME280;15862;43.062;25.626;2023-02-22T00:30:26;99886.94;;;4.31;100.00
28683;BME280;15862;43.062;25.626;2023-02-22T00:32:54;99891.75;;;4.37;100.00
28683;BME280;15862;43.062;25.626;2023-02-22T00:35:27;99883.50;;;4.32;100.00
28683;BME280;15862;43.062;25.626;2023-02-22T00:37:56;99884.63;;;4.44;100.00
28683;BME280;15862;43.062;25.626;2023-02-22T00:40:24;99884.84;;;4.39;100.00
28683;BME280;15862;43.062;25.626;2023-02-22T00:42:50;99883.38;;;4.35;100.00
28683;BME280;15862;43.062;25.626;2023-02-22T00:45:18;99876.91;;;4.28;100.00
28683;BME280;15862;43.062;25.626;2023-02-22T00:47:44;99873.56;;;4.26;100.00
28683;BME280;15862;43.062;25.626;2023-02-22T00:50:10;99878.69;;;4.26;100.00
28683;BME280;15862;43.062;25.626;2023-02-22T00:52:37;99874.34;;;4.28;100.00
28683;BME280;15862;43.062;25.626;2023-02-22T00:55:06;99871.25;;;4.22;100.00
28683;BME280;15862;43.062;25.626;2023-02-22T00:57:32;99883.63;;;4.29;100.00
28683;BME280;15862;43.062;25.626;2023-02-22T01:00:02;99888.06;;;4.26;100.00
28683;BME280;15862;43.062;25.626;2023-02-22T01:02:39;99882.28;;;4.22;100.00
28683;BME280;15862;43.062;25.626;2023-02-22T01:05:07;99889.47;;;4.14;100.00
28683;BME280;15862;43.062;25.626;2023-02-22T01:07:33;99883.00;;;4.07;100.00
28683;BME280;15862;43.062;25.626;2023-02-22T01:10:00;99886.72;;;4.02;100.00
28683;BME280;15862;43.062;25.626;2023-02-22T01:12:27;99892.03;;;3.97;100.00
28683;BME280;15862;43.062;25.626;2023-02-22T01:14:52;99878.72;;;3.91;100.00
28683;BME280;15862;43.062;25.626;2023-02-22T01:17:24;99883.13;;;3.87;100.00
28683;BME280;15862;43.062;25.626;2023-02-22T01:19:51;99892.75;;;3.82;100.00
28683;BME280;15862;43.062;25.626;2023-02-22T01:22:17;99884.47;;;3.78;100.00
28683;BME280;15862;43.062;25.626;2023-02-22T01:24:43;99877.94;;;3.72;100.00
28683;BME280;15862;43.062;25.626;2023-02-22T01:27:08;99881.16;;;3.76;100.00
28683;BME280;15862;43.062;25.626;2023-02-22T01:29:35;99880.25;;;3.77;100.00
28683;BME280;15862;43.062;25.626;2023-02-22T01:32:00;99891.66;;;3.70;100.00
28683;BME280;15862;43.062;25.626;2023-02-22T01:34:26;99881.72;;;3.64;100.00
28683;BME280;15862;43.062;25.626;2023-02-22T01:36:51;99880.69;;;3.68;100.00
28683;BME280;15862;43.062;25.626;2023-02-22T01:39:17;99880.75;;;3.66;100.00
28683;BME280;15862;43.062;25.626;2023-02-22T01:41:44;99886.22;;;3.59;100.00
28683;BME280;15862;43.062;25.626;2023-02-22T01:44:29;99890.91;;;3.68;100.00
28683;BME280;15862;43.062;25.626;2023-02-22T01:46:57;99871.47;;;3.47;100.00
28683;BME280;15862;43.062;25.626;2023-02-22T01:49:30;99888.97;;;3.54;100.00
28683;BME280;15862;43.062;25.626;2023-02-22T01:51:59;99887.53;;;3.49;100.00
28683;BME280;15862;43.062;25.626;2023-02-22T01:54:38;99874.28;;;3.41;100.00
28683;BME280;15862;43.062;25.626;2023-02-22T01:57:21;99872.28;;;3.29;100.00
28683;BME280;15862;43.062;25.626;2023-02-22T01:59:50;99891.69;;;3.33;100.00
28683;BME280;15862;43.062;25.626;2023-02-22T02:02:17;99875.09;;;3.23;100.00
28683;BME280;15862;43.062;25.626;2023-02-22T02:04:46;99885.31;;;3.23;100.00
28683;BME280;15862;43.062;25.626;2023-02-22T02:07:14;99888.84;;;3.20;100.00
28683;BME280;15862;43.062;25.626;2023-02-22T02:10:01;99890.28;;;3.26;100.00
28683;BME280;15862;43.062;25.626;2023-02-22T02:12:29;99889.53;;;3.24;100.00
28683;BME280;15862;43.062;25.626;2023-02-22T02:17:42;99886.47;;;3.16;100.00
28683;BME280;15862;43.062;25.626;2023-02-22T02:20:28;99891.81;;;3.30;100.00
28683;BME280;15862;43.062;25.626;2023-02-22T02:34:24;99897.94;;;3.07;100.00
28683;BME280;15862;43.062;25.626;2023-02-22T02:37:21;99896.84;;;2.93;100.00
28683;BME280;15862;43.062;25.626;2023-02-22T02:42:35;99909.22;;;3.02;100.00
28683;BME280;15862;43.062;25.626;2023-02-22T02:45:18;99898.25;;;3.00;100.00
28683;BME280;15862;43.062;25.626;2023-02-22T02:47:51;99897.44;;;3.00;100.00
28683;BME280;15862;43.062;25.626;2023-02-22T02:50:22;99902.56;;;2.98;100.00
28683;BME280;15862;43.062;25.626;2023-02-22T02:52:52;99909.84;;;3.07;100.00
28683;BME280;15862;43.062;25.626;2023-02-22T02:55:20;99902.13;;;3.08;100.00
28683;BME280;15862;43.062;25.626;2023-02-22T02:57:45;99902.84;;;3.12;100.00
28683;BME280;15862;43.062;25.626;2023-02-22T03:00:14;99905.50;;;3.09;100.00
28683;BME280;15862;43.062;25.626;2023-02-22T03:08:00;99900.78;;;3.00;100.00
28683;BME280;15862;43.062;25.626;2023-02-22T03:10:47;99897.34;;;3.01;100.00
28683;BME280;15862;43.062;25.626;2023-02-22T03:15:50;99901.84;;;2.96;100.00
28683;BME280;15862;43.062;25.626;2023-02-22T03:26:03;99917.28;;;3.11;100.00
28683;BME280;15862;43.062;25.626;2023-02-22T03:28:31;99898.38;;;2.97;100.00
28683;BME280;15862;43.062;25.626;2023-02-22T03:31:05;99909.41;;;2.98;100.00
28683;BME280;15862;43.062;25.626;2023-02-22T03:33:38;99908.81;;;2.91;100.00
28683;BME280;15862;43.062;25.626;2023-02-22T03:36:21;99917.53;;;2.87;100.00
28683;BME280;15862;43.062;25.626;2023-02-22T03:38:50;99904.16;;;2.82;100.00
28683;BME280;15862;43.062;25.626;2023-02-22T03:41:22;99909.84;;;3.07;100.00
28683;BME280;15862;43.062;25.626;2023-02-22T03:43:58;99909.41;;;2.98;100.00
28683;BME280;15862;43.062;25.626;2023-02-22T03:46:26;99907.47;;;3.02;100.00
28683;BME280;15862;43.062;25.626;2023-02-22T03:49:08;99910.50;;;2.92;100.00
28683;BME280;15862;43.062;25.626;2023-02-22T03:51:34;99908.00;;;2.91;100.00
28683;BME280;15862;43.062;25.626;2023-02-22T03:54:01;99909.25;;;2.82;100.00
28683;BME280;15862;43.062;25.626;2023-02-22T03:56:32;99912.53;;;2.84;100.00
28683;BME280;15862;43.062;25.626;2023-02-22T03:59:08;99896.69;;;2.78;100.00
28683;BME280;15862;43.062;25.626;2023-02-22T04:01:34;99910.38;;;2.95;100.00
28683;BME280;15862;43.062;25.626;2023-02-22T04:04:00;99913.13;;;2.91;100.00
28683;BME280;15862;43.062;25.626;2023-02-22T04:06:35;99913.22;;;2.88;100.00
28683;BME280;15862;43.062;25.626;2023-02-22T04:09:00;99917.91;;;2.78;100.00
28683;BME280;15862;43.062;25.626;2023-02-22T04:11:26;99921.34;;;2.77;100.00
28683;BME280;15862;43.062;25.626;2023-02-22T04:13:51;99919.69;;;2.76;100.00
28683;BME280;15862;43.062;25.626;2023-02-22T04:16:18;99916.94;;;2.81;100.00
28683;BME280;15862;43.062;25.626;2023-02-22T04:18:44;99904.78;;;2.67;100.00
28683;BME280;15862;43.062;25.626;2023-02-22T04:21:09;99918.16;;;2.72;100.00
28683;BME280;15862;43.062;25.626;2023-02-22T04:23:35;99925.19;;;2.67;100.00
28683;BME280;15862;43.062;25.626;2023-02-22T04:26:00;99926.69;;;2.71;100.00
28683;BME280;15862;43.062;25.626;2023-02-22T04:28:26;99924.31;;;2.68;100.00
28683;BME280;15862;43.062;25.626;2023-02-22T04:30:51;99920.91;;;2.68;100.00
28683;BME280;15862;43.062;25.626;2023-02-22T04:33:16;99919.94;;;2.70;100.00
28683;BME280;15862;43.062;25.626;2023-02-22T04:35:42;99909.69;;;2.72;100.00
28683;BME280;15862;43.062;25.626;2023-02-22T04:38:07;99929.25;;;2.71;100.00
28683;BME280;15862;43.062;25.626;2023-02-22T04:40:36;99921.28;;;2.59;100.00
28683;BME280;15862;43.062;25.626;2023-02-22T04:43:01;99921.97;;;2.62;100.00
28683;BME280;15862;43.062;25.626;2023-02-22T04:45:27;99921.78;;;2.47;100.00
28683;BME280;15862;43.062;25.626;2023-02-22T04:47:52;99921.19;;;2.40;100.00
28683;BME280;15862;43.062;25.626;2023-02-22T04:50:18;99931.28;;;2.43;100.00
28683;BME280;15862;43.062;25.626;2023-02-22T04:52:43;99933.75;;;2.45;100.00
28683;BME280;15862;43.062;25.626;2023-02-22T04:55:10;99928.84;;;2.40;100.00
28683;BME280;15862;43.062;25.626;2023-02-22T04:57:35;99934.47;;;2.48;100.00
28683;BME280;15862;43.062;25.626;2023-02-22T05:00:01;99938.16;;;2.41;100.00
28683;BME280;15862;43.062;25.626;2023-02-22T05:02:26;99924.88;;;2.33;100.00
28683;BME280;15862;43.062;25.626;2023-02-22T05:04:52;99929.97;;;2.33;100.00
28683;BME280;15862;43.062;25.626;2023-02-22T05:07:17;99935.59;;;2.41;100.00
28683;BME280;15862;43.062;25.626;2023-02-22T05:09:42;99933.94;;;2.40;100.00
28683;BME280;15862;43.062;25.626;2023-02-22T05:12:08;99934.72;;;2.42;100.00
28683;BME280;15862;43.062;25.626;2023-02-22T05:14:33;99928.91;;;2.39;100.00
28683;BME280;15862;43.062;25.626;2023-02-22T05:17:00;99953.31;;;2.44;100.00
28683;BME280;15862;43.062;25.626;2023-02-22T05:19:26;99944.72;;;2.47;100.00
28683;BME280;15862;43.062;25.626;2023-02-22T05:21:51;99927.59;;;2.50;100.00
28683;BME280;15862;43.062;25.626;2023-02-22T05:24:16;99942.63;;;2.56;100.00
28683;BME280;15862;43.062;25.626;2023-02-22T05:26:45;99933.38;;;2.54;100.00
28683;BME280;15862;43.062;25.626;2023-02-22T05:29:11;99942.63;;;2.56;100.00
28683;BME280;15862;43.062;25.626;2023-02-22T05:31:37;99955.19;;;2.61;100.00
28683;BME280;15862;43.062;25.626;2023-02-22T05:34:03;99957.81;;;2.79;100.00
28683;BME280;15862;43.062;25.626;2023-02-22T05:36:28;99950.03;;;2.82;100.00
28683;BME280;15862;43.062;25.626;2023-02-22T05:38:54;99963.34;;;2.89;100.00
28683;BME280;15862;43.062;25.626;2023-02-22T05:41:20;99962.28;;;2.94;100.00
28683;BME280;15862;43.062;25.626;2023-02-22T05:43:45;99971.94;;;3.06;100.00
28683;BME280;15862;43.062;25.626;2023-02-22T05:46:13;99967.50;;;3.11;100.00
28683;BME280;15862;43.062;25.626;2023-02-22T05:48:39;99963.13;;;3.33;100.00
28683;BME280;15862;43.062;25.626;2023-02-22T05:51:05;99972.69;;;3.48;100.00
28683;BME280;15862;43.062;25.626;2023-02-22T05:53:30;99972.50;;;3.71;100.00
28683;BME280;15862;43.062;25.626;2023-02-22T05:55:56;99961.34;;;3.72;100.00
28683;BME280;15862;43.062;25.626;2023-02-22T05:58:21;99976.75;;;3.88;100.00
28683;BME280;15862;43.062;25.626;2023-02-22T06:00:47;99973.91;;;3.94;100.00
28683;BME280;15862;43.062;25.626;2023-02-22T06:03:12;99982.88;;;4.21;100.00
28683;BME280;15862;43.062;25.626;2023-02-22T06:05:38;99978.00;;;4.34;100.00
28683;BME280;15862;43.062;25.626;2023-02-22T06:08:05;99981.41;;;4.51;100.00
28683;BME280;15862;43.062;25.626;2023-02-22T06:10:31;99985.69;;;4.86;100.00
28683;BME280;15862;43.062;25.626;2023-02-22T06:12:57;99972.13;;;5.01;100.00
28683;BME280;15862;43.062;25.626;2023-02-22T06:15:24;99982.75;;;5.26;100.00
28683;BME280;15862;43.062;25.626;2023-02-22T06:17:50;99980.13;;;6.07;100.00
28683;BME280;15862;43.062;25.626;2023-02-22T06:20:18;99978.44;;;7.66;100.00
28683;BME280;15862;43.062;25.626;2023-02-22T06:22:53;99982.25;;;9.44;100.00
28683;BME280;15862;43.062;25.626;2023-02-22T06:25:23;99982.63;;;11.04;84.61
28683;BME280;15862;43.062;25.626;2023-02-22T06:27:49;99982.31;;;13.02;67.76
28683;BME280;15862;43.062;25.626;2023-02-22T06:30:16;99969.41;;;14.50;57.58
28683;BME280;15862;43.062;25.626;2023-02-22T06:32:42;99978.69;;;15.19;51.92
28683;BME280;15862;43.062;25.626;2023-02-22T06:35:07;99979.44;;;16.64;47.81
28683;BME280;15862;43.062;25.626;2023-02-22T06:37:33;99967.41;;;17.49;45.41
28683;BME280;15862;43.062;25.626;2023-02-22T06:39:59;99982.56;;;18.45;42.42
28683;BME280;15862;43.062;25.626;2023-02-22T06:42:24;99979.19;;;19.40;40.86
28683;BME280;15862;43.062;25.626;2023-02-22T06:44:49;99977.16;;;20.20;38.11
28683;BME280;15862;43.062;25.626;2023-02-22T06:47:15;99975.59;;;20.33;38.16
28683;BME280;15862;43.062;25.626;2023-02-22T06:49:40;99970.22;;;20.79;36.65
28683;BME280;15862;43.062;25.626;2023-02-22T06:52:07;99970.38;;;21.23;36.61
28683;BME280;15862;43.062;25.626;2023-02-22T06:54:35;99963.13;;;21.25;35.61
28683;BME280;15862;43.062;25.626;2023-02-22T06:57:00;99974.63;;;21.89;34.88
28683;BME280;15862;43.062;25.626;2023-02-22T06:59:26;99968.78;;;22.58;34.32
28683;BME280;15862;43.062;25.626;2023-02-22T07:01:52;99948.63;;;23.13;33.20
28683;BME280;15862;43.062;25.626;2023-02-22T07:04:17;99958.28;;;23.82;32.45
28683;BME280;15862;43.062;25.626;2023-02-22T07:06:47;99961.69;;;24.22;32.19
28683;BME280;15862;43.062;25.626;2023-02-22T07:09:15;99960.47;;;24.91;30.80
28683;BME280;15862;43.062;25.626;2023-02-22T07:11:41;99948.19;;;25.87;29.45
28683;BME280;15862;43.062;25.626;2023-02-22T07:14:06;99937.81;;;25.72;29.54
28683;BME280;15862;43.062;25.626;2023-02-22T07:16:32;99941.97;;;26.87;28.09
28683;BME280;15862;43.062;25.626;2023-02-22T07:18:58;99918.78;;;27.00;28.16
28683;BME280;15862;43.062;25.626;2023-02-22T07:21:25;99932.59;;;26.84;28.83
28683;BME280;15862;43.062;25.626;2023-02-22T07:23:52;99932.31;;;26.92;28.63
28683;BME280;15862;43.062;25.626;2023-02-22T07:26:18;99918.56;;;27.26;27.77
28683;BME280;15862;43.062;25.626;2023-02-22T07:28:44;99930.00;;;27.87;27.30
28683;BME280;15862;43.062;25.626;2023-02-22T07:31:10;99933.63;;;28.68;27.21
28683;BME280;15862;43.062;25.626;2023-02-22T07:33:35;99935.47;;;29.54;26.65
28683;BME280;15862;43.062;25.626;2023-02-22T07:36:00;99925.84;;;28.96;26.38
28683;BME280;15862;43.062;25.626;2023-02-22T07:38:26;99929.09;;;28.98;25.83
28683;BME280;15862;43.062;25.626;2023-02-22T07:40:53;99905.34;;;29.08;26.09
28683;BME280;15862;43.062;25.626;2023-02-22T07:43:23;99922.38;;;28.08;26.58
28683;BME280;15862;43.062;25.626;2023-02-22T07:45:51;99910.78;;;27.07;27.06
28683;BME280;15862;43.062;25.626;2023-02-22T07:48:18;99935.28;;;26.03;28.41
28683;BME280;15862;43.062;25.626;2023-02-22T07:50:44;99919.19;;;25.98;28.98
28683;BME280;15862;43.062;25.626;2023-02-22T07:53:16;99927.94;;;25.99;28.96
28683;BME280;15862;43.062;25.626;2023-02-22T07:55:42;99930.81;;;25.97;29.16
28683;BME280;15862;43.062;25.626;2023-02-22T07:58:08;99913.91;;;26.35;28.38
28683;BME280;15862;43.062;25.626;2023-02-22T08:00:36;99912.06;;;26.98;27.81
28683;BME280;15862;43.062;25.626;2023-02-22T08:03:05;99913.44;;;27.49;27.02
28683;BME280;15862;43.062;25.626;2023-02-22T08:05:33;99927.09;;;27.52;26.95
28683;BME280;15862;43.062;25.626;2023-02-22T08:07:59;99931.47;;;28.48;26.64
28683;BME280;15862;43.062;25.626;2023-02-22T08:10:25;99927.16;;;29.40;25.87
28683;BME280;15862;43.062;25.626;2023-02-22T08:12:51;99925.25;;;29.06;25.28
28683;BME280;15862;43.062;25.626;2023-02-22T08:17:48;99929.28;;;28.97;25.56
28683;BME280;15862;43.062;25.626;2023-02-22T08:20:14;99927.56;;;29.82;25.81
28683;BME280;15862;43.062;25.626;2023-02-22T08:22:42;99914.81;;;27.76;26.34
28683;BME280;15862;43.062;25.626;2023-02-22T08:25:08;99922.25;;;27.25;26.73
28683;BME280;15862;43.062;25.626;2023-02-22T08:27:33;99914.69;;;26.49;27.44
28683;BME280;15862;43.062;25.626;2023-02-22T08:29:59;99928.25;;;26.90;27.70
28683;BME280;15862;43.062;25.626;2023-02-22T08:32:24;99918.56;;;27.26;27.13
28683;BME280;15862;43.062;25.626;2023-02-22T08:34:50;99917.59;;;27.81;26.77
28683;BME280;15862;43.062;25.626;2023-02-22T08:37:16;99912.09;;;27.40;27.24
28683;BME280;15862;43.062;25.626;2023-02-22T08:39:42;99910.44;;;27.45;27.46
28683;BME280;15862;43.062;25.626;2023-02-22T08:42:08;99907.47;;;27.53;27.24
28683;BME280;15862;43.062;25.626;2023-02-22T08:44:35;99923.66;;;27.27;27.78
28683;BME280;15862;43.062;25.626;2023-02-22T08:47:13;99913.56;;;26.63;27.66
28683;BME280;15862;43.062;25.626;2023-02-22T08:49:39;99908.75;;;26.78;27.75
28683;BME280;15862;43.062;25.626;2023-02-22T08:52:04;99920.50;;;26.27;28.22
28683;BME280;15862;43.062;25.626;2023-02-22T08:54:30;99912.56;;;26.27;28.72
28683;BME280;15862;43.062;25.626;2023-02-22T08:56:55;99894.56;;;24.70;30.24
28683;BME280;15862;43.062;25.626;2023-02-22T08:59:20;99901.25;;;22.99;32.67
28683;BME280;15862;43.062;25.626;2023-02-22T09:01:47;99903.25;;;22.48;33.35
28683;BME280;15862;43.062;25.626;2023-02-22T09:04:13;99910.63;;;21.89;34.60
28683;BME280;15862;43.062;25.626;2023-02-22T09:06:42;99900.84;;;22.53;33.80
28683;BME280;15862;43.062;25.626;2023-02-22T09:09:08;99900.81;;;23.50;32.72
28683;BME280;15862;43.062;25.626;2023-02-22T09:11:40;99908.91;;;24.42;31.15
28683;BME280;15862;43.062;25.626;2023-02-22T09:14:05;99919.06;;;25.80;29.90
28683;BME280;15862;43.062;25.626;2023-02-22T09:16:31;99908.91;;;25.77;29.38
28683;BME280;15862;43.062;25.626;2023-02-22T09:18:56;99913.03;;;26.11;28.95
28683;BME280;15862;43.062;25.626;2023-02-22T09:21:22;99912.28;;;27.03;28.14
28683;BME280;15862;43.062;25.626;2023-02-22T09:23:47;99906.88;;;27.51;27.77
28683;BME280;15862;43.062;25.626;2023-02-22T09:26:12;99911.97;;;27.35;27.58
28683;BME280;15862;43.062;25.626;2023-02-22T09:28:40;99903.66;;;27.85;27.12
28683;BME280;15862;43.062;25.626;2023-02-22T09:31:06;99903.16;;;27.77;27.28
28683;BME280;15862;43.062;25.626;2023-02-22T09:33:32;99898.25;;;28.79;26.74
28683;BME280;15862;43.062;25.626;2023-02-22T09:35:57;99882.53;;;28.78;25.51
28683;BME280;15862;43.062;25.626;2023-02-22T09:38:25;99896.34;;;29.44;26.08
28683;BME280;15862;43.062;25.626;2023-02-22T09:41:21;99898.47;;;29.81;25.10
28683;BME280;15862;43.062;25.626;2023-02-22T09:47:01;99901.63;;;30.17;24.23
28683;BME280;15862;43.062;25.626;2023-02-22T09:49:31;99900.72;;;30.12;24.65
28683;BME280;15862;43.062;25.626;2023-02-22T09:52:07;99891.91;;;29.72;25.00
28683;BME280;15862;43.062;25.626;2023-02-22T09:55:00;99890.00;;;29.95;25.05
28683;BME280;15862;43.062;25.626;2023-02-22T09:57:40;99885.34;;;29.51;25.51
28683;BME280;15862;43.062;25.626;2023-02-22T10:00:29;99885.84;;;29.76;25.11
28683;BME280;15862;43.062;25.626;2023-02-22T10:03:23;99875.13;;;30.55;24.45
28683;BME280;15862;43.062;25.626;2023-02-22T10:06:13;99869.25;;;30.41;24.36
28683;BME280;15862;43.062;25.626;2023-02-22T10:08:40;99873.06;;;30.01;24.74
28683;BME280;15862;43.062;25.626;2023-02-22T10:11:13;99861.06;;;30.76;23.96
28683;BME280;15862;43.062;25.626;2023-02-22T10:22:59;99845.00;;;33.04;22.07
28683;BME280;15862;43.062;25.626;2023-02-22T10:25:30;99845.19;;;33.90;20.71
28683;BME280;15862;43.062;25.626;2023-02-22T10:30:38;99828.78;;;32.79;22.22
28683;BME280;15862;43.062;25.626;2023-02-22T10:33:20;99841.34;;;33.10;21.91
28683;BME280;15862;43.062;25.626;2023-02-22T10:35:46;99833.41;;;32.89;21.98
28683;BME280;15862;43.062;25.626;2023-02-22T10:41:01;99831.19;;;32.18;23.17
28683;BME280;15862;43.062;25.626;2023-02-22T10:43:28;99835.81;;;32.54;22.24
28683;BME280;15862;43.062;25.626;2023-02-22T10:45:57;99823.34;;;32.69;21.72
28683;BME280;15862;43.062;25.626;2023-02-22T10:48:27;99802.94;;;31.80;22.51
28683;BME280;15862;43.062;25.626;2023-02-22T10:50:58;99809.19;;;32.11;22.98
28683;BME280;15862;43.062;25.626;2023-02-22T10:53:26;99798.50;;;32.11;22.32
28683;BME280;15862;43.062;25.626;2023-02-22T10:56:12;99796.50;;;32.96;21.45
28683;BME280;15862;43.062;25.626;2023-02-22T10:59:07;99796.75;;;32.27;22.15
28683;BME280;15862;43.062;25.626;2023-02-22T11:01:35;99800.16;;;31.70;22.58
28683;BME280;15862;43.062;25.626;2023-02-22T11:04:15;99787.50;;;31.86;22.70
28683;BME280;15862;43.062;25.626;2023-02-22T11:06:43;99814.88;;;31.51;22.48
28683;BME280;15862;43.062;25.626;2023-02-22T11:11:43;99800.88;;;31.01;22.82
28683;BME280;15862;43.062;25.626;2023-02-22T11:14:12;99795.69;;;30.29;23.73
28683;BME280;15862;43.062;25.626;2023-02-22T11:16:52;99795.16;;;29.99;24.14
28683;BME280;15862;43.062;25.626;2023-02-22T11:19:22;99793.31;;;30.00;23.81
28683;BME280;15862;43.062;25.626;2023-02-22T11:21:51;99795.00;;;29.78;24.74
28683;BME280;15862;43.062;25.626;2023-02-22T11:24:19;99794.75;;;30.68;23.36
28683;BME280;15862;43.062;25.626;2023-02-22T11:26:50;99791.81;;;29.02;25.48
28683;BME280;15862;43.062;25.626;2023-02-22T11:31:45;99787.19;;;29.09;25.39
28683;BME280;15862;43.062;25.626;2023-02-22T11:34:33;99777.47;;;28.80;25.35
28683;BME280;15862;43.062;25.626;2023-02-22T11:37:16;99775.63;;;28.69;26.09
28683;BME280;15862;43.062;25.626;2023-02-22T11:39:42;99774.06;;;29.42;24.96
28683;BME280;15862;43.062;25.626;2023-02-22T11:42:24;99782.06;;;29.19;25.19
28683;BME280;15862;43.062;25.626;2023-02-22T11:47:46;99769.13;;;28.65;25.80
28683;BME280;15862;43.062;25.626;2023-02-22T11:53:18;99779.00;;;27.18;27.08
28683;BME280;15862;43.062;25.626;2023-02-22T11:56:10;99766.09;;;26.13;28.31
28683;BME280;15862;43.062;25.626;2023-02-22T11:58:53;99748.66;;;25.99;29.00
28683;BME280;15862;43.062;25.626;2023-02-22T12:09:47;99765.53;;;27.96;26.86
28683;BME280;15862;43.062;25.626;2023-02-22T12:26:09;99762.88;;;28.94;26.33
28683;BME280;15862;43.062;25.626;2023-02-22T12:28:40;99741.81;;;28.36;26.28
28683;BME280;15862;43.062;25.626;2023-02-22T12:31:19;99751.91;;;28.45;26.31
28683;BME280;15862;43.062;25.626;2023-02-22T12:33:52;99749.38;;;28.84;26.13
28683;BME280;15862;43.062;25.626;2023-02-22T12:36:23;99744.25;;;28.60;26.36
28683;BME280;15862;43.062;25.626;2023-02-22T12:38:57;99748.00;;;27.66;27.40
28683;BME280;15862;43.062;25.626;2023-02-22T12:41:42;99745.25;;;27.55;28.04
28683;BME280;15862;43.062;25.626;2023-02-22T12:44:17;99737.94;;;27.97;26.97
28683;BME280;15862;43.062;25.626;2023-02-22T12:46:47;99740.91;;;28.30;27.41
28683;BME280;15862;43.062;25.626;2023-02-22T12:49:33;99742.81;;;28.12;27.12
28683;BME280;15862;43.062;25.626;2023-02-22T12:52:12;99750.66;;;27.66;27.59
28683;BME280;15862;43.062;25.626;2023-02-22T12:59:58;99738.59;;;26.32;29.69
28683;BME280;15862;43.062;25.626;2023-02-22T13:02:29;99733.00;;;26.22;29.65
28683;BME280;15862;43.062;25.626;2023-02-22T13:05:00;99738.22;;;26.28;29.80
28683;BME280;15862;43.062;25.626;2023-02-22T13:13:17;99734.03;;;25.03;30.77
28683;BME280;15862;43.062;25.626;2023-02-22T13:18:48;99732.88;;;25.86;30.09
28683;BME280;15862;43.062;25.626;2023-02-22T13:21:52;99723.22;;;25.61;30.36
28683;BME280;15862;43.062;25.626;2023-02-22T13:27:19;99728.22;;;24.68;31.58
28683;BME280;15862;43.062;25.626;2023-02-22T13:29:50;99719.50;;;24.68;31.67
28683;BME280;15862;43.062;25.626;2023-02-22T13:40:33;99721.56;;;20.43;38.45
28683;BME280;15862;43.062;25.626;2023-02-22T13:43:42;99725.44;;;19.96;39.18
28683;BME280;15862;43.062;25.626;2023-02-22T13:48:59;99730.22;;;19.10;41.44
28683;BME280;15862;43.062;25.626;2023-02-22T13:51:47;99734.66;;;18.93;41.73
28683;BME280;15862;43.062;25.626;2023-02-22T13:57:01;99727.03;;;18.76;42.88
28683;BME280;15862;43.062;25.626;2023-02-22T13:59:34;99738.66;;;18.73;42.79
28683;BME280;15862;43.062;25.626;2023-02-22T14:02:01;99739.28;;;18.83;43.14
28683;BME280;15862;43.062;25.626;2023-02-22T14:09:50;99734.41;;;18.72;43.26
28683;BME280;15862;43.062;25.626;2023-02-22T14:17:36;99746.72;;;18.56;44.26
28683;BME280;15862;43.062;25.626;2023-02-22T14:20:33;99749.03;;;18.51;43.93
28683;BME280;15862;43.062;25.626;2023-02-22T14:23:36;99746.75;;;18.40;44.51
28683;BME280;15862;43.062;25.626;2023-02-22T14:34:09;99749.38;;;18.16;45.39
28683;BME280;15862;43.062;25.626;2023-02-22T14:36:51;99748.38;;;18.09;45.37
28683;BME280;15862;43.062;25.626;2023-02-22T14:39:33;99739.22;;;18.13;45.74
28683;BME280;15862;43.062;25.626;2023-02-22T14:42:11;99733.31;;;18.11;46.18
28683;BME280;15862;43.062;25.626;2023-02-22T14:47:20;99739.56;;;17.94;46.41
28683;BME280;15862;43.062;25.626;2023-02-22T14:49:55;99741.50;;;18.00;46.74
28683;BME280;15862;43.062;25.626;2023-02-22T14:52:25;99739.88;;;17.99;46.84
28683;BME280;15862;43.062;25.626;2023-02-22T14:55:15;99739.06;;;17.91;47.04
28683;BME280;15862;43.062;25.626;2023-02-22T15:00:43;99739.06;;;17.75;47.63
28683;BME280;15862;43.062;25.626;2023-02-22T15:03:32;99740.34;;;17.71;47.82
28683;BME280;15862;43.062;25.626;2023-02-22T15:06:14;99717.94;;;17.53;48.25
28683;BME280;15862;43.062;25.626;2023-02-22T15:08:42;99735.25;;;17.62;48.22
28683;BME280;15862;43.062;25.626;2023-02-22T15:11:32;99748.66;;;17.59;48.58
28683;BME280;15862;43.062;25.626;2023-02-22T15:14:00;99743.72;;;17.48;48.83
28683;BME280;15862;43.062;25.626;2023-02-22T15:16:30;99732.09;;;17.34;49.27
28683;BME280;15862;43.062;25.626;2023-02-22T15:18:59;99740.41;;;17.38;49.23
28683;BME280;15862;43.062;25.626;2023-02-22T15:21:29;99747.63;;;17.36;49.41
28683;BME280;15862;43.062;25.626;2023-02-22T15:24:01;99736.13;;;17.21;49.77
28683;BME280;15862;43.062;25.626;2023-02-22T15:26:36;99750.91;;;17.12;50.47
28683;BME280;15862;43.062;25.626;2023-02-22T15:29:23;99747.47;;;17.04;50.65